Terminal Aerodrome Forecast
Issued by NWS Cleveland, OH

Home | Current Version | Previous Version | Graphics & Text | Print | Product List | Glossary On
Versions: 1 2 3 4 5 6 7 8 9 10 11 12 13 14 15
000
FTUS41 KCLE 270534
TAFERI
TAF
KERI 270534Z 2706/2806 20005KT P6SM SCT035 BKN080
     FM271000 15004KT P6SM VCSH OVC060
      TEMPO 2710/2714 BKN030 OVC060
     FM271400 36004KT P6SM SCT030 BKN060
     FM271600 36005KT P6SM BKN050
     FM271800 01007KT P6SM SCT050 BKN120=

USA.gov is the U.S. government's official web portal to all federal, state and local government web resources and services.